Time;durP1;ratioP1;P1;durP2;ratioP2;P2;SDS_P1;SDS_P2;PMS_P1;PMS_P2;Temp;Humidity;BMP_temperature;BMP_pressure;BME280_temperature;BME280_humidity;BME280_pressure;Samples;Min_cycle;Max_cycle;Signal;HPM_P1;HPM_P2
2021/03/31 00:01:28;;;;;;;4.18;3.20;;;10.30;99.90;;;;;;5035234;28;20240;-77
2021/03/31 00:03:53;;;;;;;6.37;3.57;;;10.20;99.90;;;;;;5035083;28;20646;-77
2021/03/31 00:06:19;;;;;;;6.13;3.63;;;10.20;99.90;;;;;;5033228;28;20697;-76
2021/03/31 00:08:44;;;;;;;5.10;3.03;;;10.20;99.90;;;;;;5035017;28;20620;-77
2021/03/31 00:11:11;;;;;;;7.27;3.57;;;10.10;99.90;;;;;;5034787;28;20218;-77
2021/03/31 00:13:38;;;;;;;4.73;3.60;;;10.10;99.90;;;;;;5033719;28;20262;-78
2021/03/31 00:16:04;;;;;;;8.48;3.17;;;10.00;99.90;;;;;;5033142;28;20441;-78
2021/03/31 00:18:30;;;;;;;6.00;3.50;;;10.00;99.90;;;;;;5034757;28;20544;-78
2021/03/31 00:20:56;;;;;;;8.00;3.50;;;9.90;99.90;;;;;;5034816;28;20521;-77
2021/03/31 00:23:24;;;;;;;4.77;3.53;;;9.90;99.90;;;;;;5034736;28;20174;-77
2021/03/31 00:25:50;;;;;;;9.25;3.47;;;9.80;99.90;;;;;;5034238;28;20236;-77
2021/03/31 00:28:17;;;;;;;4.83;3.27;;;9.80;99.90;;;;;;5033312;28;20183;-76
2021/03/31 00:30:44;;;;;;;3.03;2.60;;;9.70;99.90;;;;;;5034364;28;20468;-76
2021/03/31 00:33:10;;;;;;;6.13;3.63;;;9.70;99.90;;;;;;5033510;28;20186;-78
2021/03/31 00:35:37;;;;;;;8.38;4.30;;;9.70;99.90;;;;;;5033572;28;20440;-76
2021/03/31 00:38:04;;;;;;;6.38;3.75;;;9.60;99.90;;;;;;5034423;28;20277;-77
2021/03/31 00:40:44;;;;;;;5.50;3.28;;;9.50;99.90;;;;;;5034436;28;20174;-77
2021/03/31 00:43:10;;;;;;;6.10;4.20;;;9.50;99.90;;;;;;5034403;28;20205;-77
2021/03/31 00:45:36;;;;;;;4.35;3.10;;;9.40;99.90;;;;;;5034066;28;20661;-77
2021/03/31 00:48:02;;;;;;;7.05;3.40;;;9.40;99.90;;;;;;5034256;28;20232;-77
2021/03/31 00:50:28;;;;;;;9.48;4.25;;;9.30;99.90;;;;;;5032861;28;20209;-77
2021/03/31 00:52:55;;;;;;;7.00;3.53;;;9.30;99.90;;;;;;5032829;28;20178;-77
2021/03/31 00:55:25;;;;;;;12.43;3.93;;;9.20;99.90;;;;;;5016128;28;20539;-77
2021/03/31 00:57:52;;;;;;;4.33;3.00;;;9.20;99.90;;;;;;5034157;28;20499;-77
2021/03/31 01:00:18;;;;;;;5.82;4.00;;;9.20;99.90;;;;;;5032701;28;20877;-77
2021/03/31 01:02:44;;;;;;;8.00;4.28;;;9.10;99.90;;;;;;5033763;28;20230;-77
2021/03/31 01:05:12;;;;;;;5.77;4.13;;;9.00;99.90;;;;;;5033511;28;20634;-77
2021/03/31 01:07:38;;;;;;;7.45;4.30;;;9.00;99.90;;;;;;5033914;28;20463;-78
2021/03/31 01:10:05;;;;;;;5.43;4.15;;;9.00;99.90;;;;;;5032518;28;20584;-76
2021/03/31 01:12:40;;;;;;;7.90;4.30;;;9.00;99.90;;;;;;5033799;28;20166;-77
2021/03/31 01:15:16;;;;;;;7.68;4.38;;;8.90;99.90;;;;;;5033220;28;20181;-77
2021/03/31 01:17:45;;;;;;;9.23;4.60;;;8.90;99.90;;;;;;5033797;28;20170;-77
2021/03/31 01:20:14;;;;;;;7.60;4.35;;;8.90;99.90;;;;;;5032432;28;20182;-77
2021/03/31 01:23:12;;;;;;;10.23;4.80;;;8.90;99.90;;;;;;5033578;28;20179;-77
2021/03/31 01:25:52;;;;;;;9.63;5.10;;;8.90;99.90;;;;;;5009818;28;20226;-77
2021/03/31 01:28:32;;;;;;;7.22;4.40;;;8.90;99.90;;;;;;5033549;28;20170;-76
2021/03/31 01:31:09;;;;;;;8.90;3.90;;;8.80;99.90;;;;;;5033479;28;20212;-77
2021/03/31 01:34:01;;;;;;;7.78;4.32;;;8.80;99.90;;;;;;5033734;28;20184;-77
2021/03/31 01:36:29;;;;;;;7.70;4.40;;;8.80;99.90;;;;;;5033057;28;20190;-76
2021/03/31 01:39:00;;;;;;;7.82;4.65;;;8.70;99.90;;;;;;5033346;28;20205;-77
2021/03/31 01:41:28;;;;;;;12.25;4.82;;;8.70;99.90;;;;;;5032162;28;20174;-77
2021/03/31 01:43:56;;;;;;;8.40;5.28;;;8.60;99.90;;;;;;5033452;28;20183;-77
2021/03/31 01:46:28;;;;;;;8.60;4.32;;;8.60;99.90;;;;;;5032209;28;20194;-76
2021/03/31 01:48:56;;;;;;;5.72;4.03;;;8.50;99.90;;;;;;5032104;28;20180;-76
2021/03/31 01:51:22;;;;;;;12.15;4.80;;;8.50;99.90;;;;;;5032093;28;20263;-75
2021/03/31 01:53:49;;;;;;;6.43;3.83;;;8.40;99.90;;;;;;5033398;28;20599;-76
2021/03/31 01:56:16;;;;;;;7.03;5.25;;;8.40;99.90;;;;;;5033013;28;20549;-77
2021/03/31 01:58:44;;;;;;;7.20;5.35;;;8.40;99.90;;;;;;5031968;28;20174;-75
2021/03/31 02:01:14;;;;;;;6.13;4.82;;;8.40;99.90;;;;;;5033018;28;20209;-76
2021/03/31 02:03:41;;;;;;;8.15;4.82;;;8.30;99.90;;;;;;5031794;28;20593;-76
2021/03/31 02:06:07;;;;;;;11.23;5.32;;;8.30;99.90;;;;;;5032678;28;20197;-76
2021/03/31 02:08:32;;;;;;;7.87;6.07;;;8.30;99.90;;;;;;5033043;28;20188;-77
2021/03/31 02:10:59;;;;;;;10.07;5.30;;;8.30;99.90;;;;;;5032906;28;20356;-77
2021/03/31 02:13:25;;;;;;;9.10;5.22;;;8.30;99.90;;;;;;5031674;28;20178;-77
2021/03/31 02:15:56;;;;;;;6.15;5.00;;;8.30;99.90;;;;;;5032740;28;20209;-76
2021/03/31 02:18:24;;;;;;;7.15;5.13;;;8.30;99.90;;;;;;5033091;28;20173;-77
2021/03/31 02:20:53;;;;;;;9.70;5.35;;;8.20;99.90;;;;;;5032995;28;20174;-77
2021/03/31 02:23:19;;;;;;;12.05;5.72;;;8.20;99.90;;;;;;5032704;28;20170;-78
2021/03/31 02:25:47;;;;;;;8.25;4.80;;;8.10;99.90;;;;;;5030911;28;20727;-76
2021/03/31 02:28:13;;;;;;;7.05;4.72;;;8.00;99.90;;;;;;5031638;28;20281;-76
2021/03/31 02:30:39;;;;;;;12.47;4.70;;;8.00;99.90;;;;;;5032793;28;20288;-76
2021/03/31 02:33:07;;;;;;;10.57;5.35;;;7.90;99.90;;;;;;5031605;28;20474;-77
2021/03/31 02:35:35;;;;;;;6.85;5.00;;;7.80;99.90;;;;;;5032403;28;20672;-76
2021/03/31 02:38:05;;;;;;;12.50;5.07;;;7.80;99.90;;;;;;5032915;28;20249;-76
2021/03/31 02:40:31;;;;;;;7.10;4.85;;;7.80;99.90;;;;;;5032963;28;20177;-76
2021/03/31 02:42:59;;;;;;;6.03;4.80;;;7.70;99.90;;;;;;5032958;28;20175;-76
2021/03/31 02:45:26;;;;;;;12.43;5.65;;;7.70;99.90;;;;;;5030957;28;20206;-76
2021/03/31 02:47:52;;;;;;;8.40;4.90;;;7.70;99.90;;;;;;5032772;28;20189;-77
2021/03/31 02:50:22;;;;;;;11.68;5.50;;;7.70;99.90;;;;;;5032704;28;20202;-76
2021/03/31 02:52:49;;;;;;;8.75;4.38;;;7.70;99.90;;;;;;5032882;28;20520;-76
2021/03/31 02:55:16;;;;;;;7.82;4.70;;;7.70;99.90;;;;;;5032460;28;20194;-76
2021/03/31 02:57:43;;;;;;;13.07;5.00;;;7.60;99.90;;;;;;5032336;28;20174;-76
2021/03/31 03:00:10;;;;;;;7.65;5.15;;;7.60;99.90;;;;;;5034946;28;20186;-76
2021/03/31 03:02:38;;;;;;;7.50;4.78;;;7.60;99.90;;;;;;5034885;28;20186;-77
2021/03/31 03:05:05;;;;;;;7.38;4.97;;;7.50;99.90;;;;;;5035857;28;20309;-76
2021/03/31 03:07:33;;;;;;;7.93;4.82;;;7.50;99.90;;;;;;5036333;28;20176;-76
2021/03/31 03:10:00;;;;;;;6.95;5.05;;;7.40;99.90;;;;;;5037897;28;20202;-77
2021/03/31 03:12:28;;;;;;;6.72;4.45;;;7.40;99.90;;;;;;5036019;28;20513;-76
2021/03/31 03:14:55;;;;;;;11.55;4.30;;;7.40;99.90;;;;;;5035648;28;20268;-76
2021/03/31 03:17:21;;;;;;;10.20;4.38;;;7.40;99.90;;;;;;5035920;28;20170;-76
2021/03/31 03:19:48;;;;;;;8.67;4.13;;;7.40;99.90;;;;;;5035755;28;20535;-76
2021/03/31 03:22:14;;;;;;;16.17;5.68;;;7.30;99.90;;;;;;5035875;28;20420;-76
2021/03/31 03:24:44;;;;;;;9.30;4.90;;;7.30;99.90;;;;;;5035607;28;20175;-77
2021/03/31 03:27:18;;;;;;;6.68;4.32;;;7.30;99.90;;;;;;5035942;28;20214;-76
2021/03/31 03:29:48;;;;;;;6.28;4.45;;;7.30;99.90;;;;;;5035914;28;20198;-76
2021/03/31 03:32:15;;;;;;;11.63;5.72;;;7.30;99.90;;;;;;5034668;28;20541;-75
2021/03/31 03:34:42;;;;;;;12.07;4.97;;;7.30;99.90;;;;;;5034393;28;20179;-76
2021/03/31 03:37:08;;;;;;;7.00;4.63;;;7.20;99.90;;;;;;5035678;28;20206;-76
2021/03/31 03:39:34;;;;;;;11.73;5.30;;;7.30;99.90;;;;;;5035853;28;20182;-76
2021/03/31 03:42:00;;;;;;;9.20;3.67;;;7.20;99.90;;;;;;5034376;28;20559;-77
2021/03/31 03:44:26;;;;;;;5.37;4.53;;;7.20;99.90;;;;;;5034361;28;20506;-76
2021/03/31 03:46:56;;;;;;;7.18;4.85;;;7.20;99.90;;;;;;5033934;28;20628;-77
2021/03/31 03:49:22;;;;;;;7.10;4.22;;;7.20;99.90;;;;;;5034400;28;20567;-76
2021/03/31 03:51:48;;;;;;;7.50;4.23;;;7.20;99.90;;;;;;5035694;28;20232;-77
2021/03/31 03:54:14;;;;;;;9.10;3.88;;;7.20;99.90;;;;;;5035250;28;20413;-77
2021/03/31 03:56:48;;;;;;;8.60;4.10;;;7.20;99.90;;;;;;5017354;28;20209;-76
2021/03/31 03:59:24;;;;;;;6.55;4.20;;;7.20;99.90;;;;;;5035226;28;20170;-77
2021/03/31 04:01:52;;;;;;;7.63;3.65;;;7.20;99.90;;;;;;5035512;28;20166;-77
2021/03/31 04:04:19;;;;;;;10.20;3.95;;;7.20;99.90;;;;;;5035267;28;20220;-76
2021/03/31 04:06:44;;;;;;;5.57;3.47;;;7.20;99.90;;;;;;5034803;28;20271;-76
2021/03/31 04:09:11;;;;;;;9.27;3.53;;;7.20;99.90;;;;;;5034260;28;20170;-77
2021/03/31 04:11:39;;;;;;;7.10;3.97;;;7.20;99.90;;;;;;5035030;28;20514;-76
2021/03/31 04:14:06;;;;;;;13.38;4.30;;;7.20;99.90;;;;;;5034739;28;20178;-77
2021/03/31 04:16:33;;;;;;;9.10;4.47;;;7.10;99.90;;;;;;5033245;28;20198;-76
2021/03/31 04:19:09;;;;;;;8.40;4.03;;;7.10;99.90;;;;;;5033797;28;20182;-76
2021/03/31 04:21:36;;;;;;;7.43;4.10;;;7.10;99.90;;;;;;5034879;28;20166;-77
2021/03/31 04:24:02;;;;;;;9.55;4.80;;;7.10;99.90;;;;;;5033400;28;20204;-77
2021/03/31 04:26:31;;;;;;;11.10;4.75;;;7.10;99.90;;;;;;5034035;28;20296;-77
2021/03/31 04:28:57;;;;;;;8.20;4.10;;;7.20;99.90;;;;;;5034706;28;20253;-78
2021/03/31 04:31:26;;;;;;;10.27;4.50;;;7.20;99.90;;;;;;5034513;28;20792;-77
2021/03/31 04:33:52;;;;;;;8.73;4.75;;;7.20;99.90;;;;;;5034646;28;20170;-76
2021/03/31 04:36:18;;;;;;;10.13;5.03;;;7.20;99.90;;;;;;5033923;28;20202;-76
2021/03/31 04:38:48;;;;;;;12.13;4.60;;;7.20;99.90;;;;;;5033080;28;20174;-77
2021/03/31 04:41:14;;;;;;;10.55;5.70;;;7.20;99.90;;;;;;5034697;28;20182;-77
2021/03/31 04:43:40;;;;;;;11.85;5.30;;;7.20;99.90;;;;;;5034583;28;20654;-76
2021/03/31 04:46:09;;;;;;;15.23;5.07;;;7.30;99.90;;;;;;5034235;28;20194;-76
2021/03/31 04:48:39;;;;;;;12.13;5.03;;;7.30;99.90;;;;;;5032895;28;20437;-77
2021/03/31 04:51:05;;;;;;;11.23;5.60;;;7.30;99.90;;;;;;5034263;28;20202;-77
2021/03/31 04:53:31;;;;;;;8.77;4.90;;;7.20;99.90;;;;;;5034319;28;20175;-77
2021/03/31 04:55:57;;;;;;;7.83;4.27;;;7.10;99.90;;;;;;5033774;28;20194;-77
2021/03/31 04:58:23;;;;;;;9.20;5.17;;;7.10;99.90;;;;;;5032838;28;20507;-78
2021/03/31 05:00:49;;;;;;;12.73;5.33;;;7.10;99.90;;;;;;5032376;28;20190;-77
2021/03/31 05:03:14;;;;;;;10.70;4.90;;;7.00;99.90;;;;;;5032759;28;20483;-77
2021/03/31 05:05:40;;;;;;;11.73;5.83;;;7.00;99.90;;;;;;5033665;28;20202;-76
2021/03/31 05:08:07;;;;;;;12.23;5.20;;;7.00;99.90;;;;;;5033906;28;20665;-76
2021/03/31 05:10:33;;;;;;;12.57;5.80;;;7.00;99.90;;;;;;5032632;28;20209;-77
2021/03/31 05:12:59;;;;;;;11.18;6.03;;;6.90;99.90;;;;;;5032591;28;20202;-77
2021/03/31 05:15:24;;;;;;;13.27;6.40;;;6.90;99.90;;;;;;5033322;28;20229;-77
2021/03/31 05:17:50;;;;;;;12.27;6.03;;;7.00;99.90;;;;;;5016088;28;20174;-77
2021/03/31 05:20:16;;;;;;;12.60;6.23;;;7.00;99.90;;;;;;5033476;28;20220;-76
2021/03/31 05:22:42;;;;;;;14.43;6.63;;;7.00;99.90;;;;;;5033600;28;20662;-76
2021/03/31 05:25:08;;;;;;;20.13;5.80;;;7.00;99.90;;;;;;5033102;28;20425;-76
2021/03/31 05:27:35;;;;;;;10.05;6.10;;;7.00;99.90;;;;;;5032330;28;20524;-77
2021/03/31 05:30:03;;;;;;;12.13;6.65;;;7.10;99.90;;;;;;5033515;28;20213;-77
2021/03/31 05:32:28;;;;;;;15.60;6.32;;;7.10;99.90;;;;;;5033934;28;20170;-76
2021/03/31 05:34:54;;;;;;;14.43;6.50;;;7.10;99.90;;;;;;5032018;28;20174;-77
2021/03/31 05:37:20;;;;;;;20.30;6.90;;;7.10;99.90;;;;;;5032240;28;20642;-76
2021/03/31 05:39:46;;;;;;;15.77;7.20;;;7.10;99.90;;;;;;5041581;28;20181;-76
2021/03/31 05:42:11;;;;;;;16.33;6.23;;;7.10;99.90;;;;;;5053385;28;20614;-77
2021/03/31 05:44:38;;;;;;;13.80;6.50;;;7.10;99.90;;;;;;5052984;28;20427;-77
2021/03/31 05:47:05;;;;;;;16.40;7.25;;;7.10;99.90;;;;;;5053112;28;20200;-77
2021/03/31 05:49:31;;;;;;;15.93;6.55;;;7.10;99.90;;;;;;5053118;28;20205;-76
2021/03/31 05:51:57;;;;;;;11.93;6.60;;;7.20;99.90;;;;;;5051849;28;20655;-76
2021/03/31 05:54:24;;;;;;;16.23;6.87;;;7.20;99.90;;;;;;5053192;28;20419;-78
2021/03/31 05:56:54;;;;;;;14.65;6.47;;;7.20;99.90;;;;;;5052988;28;20787;-77
2021/03/31 05:59:20;;;;;;;22.38;7.53;;;7.30;99.90;;;;;;5053182;28;20652;-79
2021/03/31 06:01:47;;;;;;;13.95;8.00;;;7.40;99.90;;;;;;5051869;28;20181;-76
2021/03/31 06:04:16;;;;;;;14.50;7.28;;;7.50;99.90;;;;;;5051970;28;20682;-77
2021/03/31 06:06:42;;;;;;;13.50;6.80;;;7.60;99.90;;;;;;5052660;28;20193;-77
2021/03/31 06:09:08;;;;;;;20.80;8.50;;;7.60;99.90;;;;;;5052611;28;20177;-77
2021/03/31 06:11:57;;;;;;;14.45;8.02;;;7.80;99.90;;;;;;5052958;28;20186;-76
2021/03/31 06:14:37;;;;;;;16.27;6.97;;;7.90;99.90;;;;;;5053098;28;20292;-79
2021/03/31 06:17:12;;;;;;;15.27;7.38;;;7.90;99.90;;;;;;5052737;28;20307;-77
2021/03/31 06:19:45;;;;;;;13.40;7.13;;;8.00;99.90;;;;;;5052814;28;20173;-76
2021/03/31 06:22:35;;;;;;;14.20;7.35;;;8.10;99.90;;;;;;5051641;28;20579;-77
2021/03/31 06:25:07;;;;;;;14.60;7.72;;;8.20;99.90;;;;;;5052591;28;20182;-77
2021/03/31 06:27:33;;;;;;;14.27;7.55;;;8.30;99.90;;;;;;5051497;28;20197;-76
2021/03/31 06:30:05;;;;;;;12.63;7.53;;;8.40;99.90;;;;;;5051510;28;20704;-77
2021/03/31 06:32:41;;;;;;;14.35;6.97;;;8.50;99.90;;;;;;5053667;28;20418;-77
2021/03/31 06:35:20;;;;;;;14.43;7.70;;;8.60;99.90;;;;;;5055059;28;20647;-77
2021/03/31 06:37:46;;;;;;;16.65;7.15;;;8.70;99.90;;;;;;5055373;28;20200;-77
2021/03/31 06:40:30;;;;;;;18.30;8.10;;;8.80;99.90;;;;;;5055117;28;20190;-77
2021/03/31 06:43:08;;;;;;;22.92;7.07;;;8.90;99.90;;;;;;5055304;28;20185;-77
2021/03/31 06:45:38;;;;;;;13.95;7.55;;;9.10;99.90;;;;;;5056061;28;20197;-77
2021/03/31 06:48:06;;;;;;;12.65;7.07;;;9.30;99.90;;;;;;5056712;28;20173;-77
2021/03/31 06:50:37;;;;;;;12.45;7.28;;;9.50;99.90;;;;;;5056782;28;20583;-77
2021/03/31 06:53:05;;;;;;;14.15;7.57;;;9.70;99.90;;;;;;5056480;28;20173;-76
2021/03/31 06:55:32;;;;;;;17.27;7.27;;;9.80;99.90;;;;;;5055825;28;20204;-77
2021/03/31 06:58:00;;;;;;;12.37;7.37;;;10.10;99.90;;;;;;5056602;28;20394;-78
2021/03/31 07:00:31;;;;;;;19.35;8.45;;;10.30;99.90;;;;;;5054934;28;20419;-77
2021/03/31 07:03:03;;;;;;;17.87;7.67;;;10.40;99.90;;;;;;5056203;28;20181;-78
2021/03/31 07:05:29;;;;;;;14.37;8.20;;;10.60;99.90;;;;;;5038653;28;20463;-77
2021/03/31 07:08:15;;;;;;;23.67;8.47;;;10.90;99.90;;;;;;5056241;28;20416;-77
2021/03/31 07:10:51;;;;;;;16.30;7.80;;;11.10;99.90;;;;;;5054808;28;20459;-77
2021/03/31 07:13:25;;;;;;;20.97;8.40;;;11.20;99.90;;;;;;5055859;28;20487;-77
2021/03/31 07:15:52;;;;;;;17.53;7.90;;;11.40;99.90;;;;;;5055361;28;20973;-77
2021/03/31 07:18:21;;;;;;;24.83;10.00;;;11.60;99.90;;;;;;5054463;28;20426;-77
2021/03/31 07:20:47;;;;;;;19.43;9.40;;;11.90;99.90;;;;;;5055938;28;20445;-77
2021/03/31 07:23:13;;;;;;;17.30;8.70;;;12.10;99.90;;;;;;5055604;28;20935;-77
2021/03/31 07:25:39;;;;;;;15.73;8.83;;;12.30;99.90;;;;;;5055206;28;20201;-77
2021/03/31 07:28:06;;;;;;;30.03;10.53;;;12.50;99.90;;;;;;5055659;28;20549;-78
2021/03/31 07:30:32;;;;;;;15.73;8.90;;;12.80;99.90;;;;;;5055702;28;20204;-77
2021/03/31 07:33:15;;;;;;;21.17;8.53;;;12.90;99.90;;;;;;5055567;28;20543;-77
2021/03/31 07:35:41;;;;;;;13.30;8.20;;;13.00;99.90;;;;;;5053967;28;20806;-77
2021/03/31 07:38:07;;;;;;;19.53;9.20;;;13.30;99.90;;;;;;5054438;28;20436;-76
2021/03/31 07:40:35;;;;;;;14.97;7.67;;;13.50;99.90;;;;;;5055568;28;20405;-77
2021/03/31 07:43:12;;;;;;;10.93;6.70;;;13.60;99.90;;;;;;5054330;28;20485;-77
2021/03/31 07:45:54;;;;;;;21.33;6.60;;;13.90;99.90;;;;;;5053879;28;20402;-76
2021/03/31 07:48:21;;;;;;;9.27;7.10;;;14.00;99.90;;;;;;5054380;28;20423;-76
2021/03/31 07:50:47;;;;;;;11.80;7.23;;;14.10;99.90;;;;;;5054122;28;20963;-77
2021/03/31 07:53:14;;;;;;;11.83;7.37;;;14.30;99.90;;;;;;5054097;28;20418;-76
2021/03/31 07:55:45;;;;;;;13.77;6.87;;;14.40;99.90;;;;;;5053748;28;20556;-77
2021/03/31 07:58:14;;;;;;;11.50;7.90;;;14.60;99.90;;;;;;5055167;28;20430;-77
2021/03/31 08:03:19;;;;;;;9.63;7.10;;;15.00;99.90;;;;;;5055398;28;20459;-77
2021/03/31 08:06:12;;;;;;;11.03;7.10;;;15.10;99.90;;;;;;5053344;28;20440;-76
2021/03/31 08:08:55;;;;;;;9.57;7.00;;;15.30;99.90;;;;;;5053811;28;20391;-78
2021/03/31 08:11:38;;;;;;;12.63;6.27;;;15.50;99.90;;;;;;5054954;28;20487;-77
2021/03/31 08:14:09;;;;;;;13.13;7.57;;;15.60;99.90;;;;;;5054704;28;20927;-77
2021/03/31 08:16:45;;;;;;;13.07;7.33;;;15.70;99.90;;;;;;5054499;28;20937;-76
2021/03/31 08:19:15;;;;;;;15.03;7.70;;;15.80;99.90;;;;;;5054930;28;20843;-77
2021/03/31 08:21:42;;;;;;;16.43;7.67;;;16.00;99.90;;;;;;5054747;28;20416;-76
2021/03/31 08:24:09;;;;;;;11.57;7.33;;;16.10;99.90;;;;;;5036540;28;20431;-77
2021/03/31 08:26:43;;;;;;;13.27;7.43;;;16.30;99.90;;;;;;5054162;28;20493;-77
2021/03/31 08:29:19;;;;;;;15.77;7.83;;;16.50;99.90;;;;;;5053383;28;20415;-78
2021/03/31 08:32:00;;;;;;;20.57;7.93;;;16.70;99.90;;;;;;5053322;28;20432;-76
2021/03/31 08:34:28;;;;;;;15.03;7.60;;;16.90;99.90;;;;;;5054427;28;20427;-77
2021/03/31 08:36:54;;;;;;;13.37;7.97;;;16.90;99.90;;;;;;5052761;28;20443;-78
2021/03/31 08:39:20;;;;;;;15.53;7.63;;;17.00;99.90;;;;;;5053357;28;20785;-77
2021/03/31 08:41:52;;;;;;;12.97;7.00;;;17.10;99.90;;;;;;5054429;28;20771;-76
2021/03/31 08:44:27;;;;;;;10.77;6.53;;;17.40;99.90;;;;;;5054259;28;20488;-78
2021/03/31 08:46:55;;;;;;;14.47;7.57;;;17.60;99.90;;;;;;5052873;28;20443;-77
2021/03/31 08:49:29;;;;;;;12.63;7.70;;;18.00;99.90;;;;;;5054154;28;20477;-78
2021/03/31 08:51:58;;;;;;;10.53;6.90;;;18.30;99.90;;;;;;5053099;28;20415;-78
2021/03/31 08:54:54;;;;;;;14.20;8.00;;;18.70;99.90;;;;;;5054299;28;20500;-78
2021/03/31 08:57:30;;;;;;;14.00;7.50;;;19.10;99.90;;;;;;5036244;28;20421;-78
2021/03/31 08:59:58;;;;;;;8.57;6.30;;;19.30;99.90;;;;;;5052721;28;20433;-78
2021/03/31 09:02:26;;;;;;;10.33;6.50;;;19.30;99.90;;;;;;5053870;28;20808;-77
2021/03/31 09:04:53;;;;;;;9.33;6.50;;;19.40;99.90;;;;;;5052377;28;20423;-76
2021/03/31 09:07:19;;;;;;;12.57;7.53;;;19.40;99.90;;;;;;5052652;28;20502;-77
2021/03/31 09:09:46;;;;;;;12.33;6.90;;;19.80;99.90;;;;;;5052778;28;20911;-76
2021/03/31 09:12:31;;;;;;;11.80;7.30;;;20.00;96.40;;;;;;5052397;28;20178;-77
2021/03/31 09:14:59;;;;;;;9.80;5.40;;;20.30;95.40;;;;;;5052183;28;20415;-77
2021/03/31 09:17:26;;;;;;;8.33;5.77;;;20.40;92.60;;;;;;5052554;28;20420;-77
2021/03/31 09:20:05;;;;;;;11.47;5.80;;;20.60;91.50;;;;;;5052517;28;20783;-78
2021/03/31 09:22:32;;;;;;;7.17;5.47;;;20.90;92.40;;;;;;5053483;28;20411;-79
2021/03/31 09:25:01;;;;;;;7.10;5.20;;;20.90;91.40;;;;;;5051478;28;20428;-78
2021/03/31 09:27:29;;;;;;;8.30;5.93;;;20.90;90.00;;;;;;5053380;28;20420;-77
2021/03/31 09:29:56;;;;;;;11.10;5.93;;;21.60;91.60;;;;;;5053351;28;20956;-78
2021/03/31 09:33:02;;;;;;;7.50;6.23;;;21.80;90.90;;;;;;5052321;28;20416;-79
2021/03/31 09:35:17;;;;;;;14.40;6.40;;;22.20;90.80;;;;;;5050847;28;20943;-78
2021/03/31 09:37:50;;;;;;;14.20;7.10;;;22.40;91.80;;;;;;5051982;28;20416;-79
2021/03/31 09:40:22;;;;;;;10.40;7.40;;;22.50;91.00;;;;;;5053733;28;20789;-78
2021/03/31 09:42:58;;;;;;;12.10;7.73;;;22.40;92.00;;;;;;5053643;28;20416;-78
2021/03/31 09:45:25;;;;;;;11.10;7.90;;;22.50;91.40;;;;;;5051885;28;20467;-78
2021/03/31 09:47:51;;;;;;;10.90;8.70;;;22.80;91.10;;;;;;5053286;28;20919;-77
2021/03/31 09:50:17;;;;;;;15.60;7.90;;;23.10;94.20;;;;;;5051785;28;20471;-79
2021/03/31 09:52:42;;;;;;;13.13;8.63;;;23.40;93.60;;;;;;5051906;28;20423;-80
2021/03/31 09:55:10;;;;;;;11.47;8.70;;;23.30;93.40;;;;;;5052867;28;20469;-78
2021/03/31 09:57:39;;;;;;;15.13;9.07;;;23.80;91.80;;;;;;5051992;28;20190;-79
2021/03/31 10:00:10;;;;;;;13.03;9.40;;;23.40;91.30;;;;;;5052876;28;21098;-77
2021/03/31 10:02:37;;;;;;;12.63;8.60;;;23.70;90.80;;;;;;5052875;28;20434;-78
2021/03/31 10:05:06;;;;;;;13.97;8.53;;;23.80;91.80;;;;;;5052225;28;20435;-78
2021/03/31 10:07:31;;;;;;;14.10;8.97;;;24.30;92.30;;;;;;5050968;28;20419;-79
2021/03/31 10:09:57;;;;;;;13.77;7.80;;;24.90;91.60;;;;;;5052869;28;20463;-79
2021/03/31 10:12:28;;;;;;;12.00;7.80;;;25.20;85.30;;;;;;5052764;28;20213;-78
2021/03/31 10:14:55;;;;;;;13.80;8.33;;;26.00;89.10;;;;;;5052200;28;20197;-78
2021/03/31 10:17:25;;;;;;;9.77;7.77;;;26.30;86.60;;;;;;5052793;28;20776;-79
2021/03/31 10:19:52;;;;;;;13.53;7.80;;;26.00;83.50;;;;;;5052784;28;20412;-77
2021/03/31 10:22:19;;;;;;;10.90;7.63;;;25.30;79.10;;;;;;5052846;28;20440;-78
2021/03/31 10:24:49;;;;;;;9.03;7.20;;;25.40;77.60;;;;;;5052426;28;20482;-77
2021/03/31 10:27:18;;;;;;;10.07;7.30;;;26.10;77.90;;;;;;5051529;28;20522;-78
2021/03/31 10:29:51;;;;;;;11.10;7.40;;;26.60;75.50;;;;;;5052645;28;20467;-79
2021/03/31 10:32:20;;;;;;;13.23;8.33;;;25.80;75.50;;;;;;5052793;28;20404;-77
2021/03/31 10:34:53;;;;;;;11.60;9.07;;;26.50;69.90;;;;;;5052345;28;20446;-76
2021/03/31 10:37:36;;;;;;;9.30;7.20;;;27.00;68.00;;;;;;5052878;28;20416;-77
2021/03/31 10:54:09;;;;;;;9.80;8.07;;;27.70;64.80;;;;;;5051553;28;20446;-76
2021/03/31 10:56:36;;;;;;;9.20;7.37;;;27.50;63.10;;;;;;5050983;28;20774;-78
2021/03/31 10:59:03;;;;;;;14.57;9.00;;;27.80;66.30;;;;;;5052710;28;20423;-79
2021/03/31 11:01:29;;;;;;;13.20;8.10;;;28.30;63.30;;;;;;5052444;28;20908;-78
2021/03/31 11:03:54;;;;;;;10.73;7.97;;;28.10;62.80;;;;;;5052500;28;20420;-80
2021/03/31 11:06:24;;;;;;;10.50;8.53;;;28.00;62.40;;;;;;5052013;28;20205;-77
2021/03/31 11:08:51;;;;;;;11.20;8.07;;;28.90;64.10;;;;;;5052511;28;20177;-76
2021/03/31 11:11:17;;;;;;;11.00;7.43;;;28.90;59.80;;;;;;5050827;28;20967;-77
2021/03/31 11:13:43;;;;;;;8.70;7.17;;;28.70;59.70;;;;;;5051079;28;20427;-76
2021/03/31 11:16:09;;;;;;;10.23;7.70;;;29.10;58.90;;;;;;5051959;28;20204;-77
2021/03/31 11:26:23;;;;;;;11.10;7.97;;;29.60;57.50;;;;;;5055543;28;20461;-78
2021/03/31 11:28:48;;;;;;;8.00;6.03;;;30.00;54.40;;;;;;5055794;28;20503;-78
2021/03/31 11:31:14;;;;;;;9.93;5.97;;;29.50;54.70;;;;;;5054529;28;20201;-80
2021/03/31 11:33:40;;;;;;;9.47;6.37;;;30.10;55.20;;;;;;5055632;28;20174;-81
2021/03/31 11:36:06;;;;;;;7.80;6.80;;;30.30;54.90;;;;;;5055120;28;20190;-79
2021/03/31 11:38:32;;;;;;;7.60;5.67;;;29.50;54.30;;;;;;5055325;28;20181;-79
2021/03/31 11:40:57;;;;;;;7.27;5.20;;;30.30;53.50;;;;;;5054293;28;20992;-77
2021/03/31 11:43:23;;;;;;;7.57;5.20;;;30.50;54.50;;;;;;5055454;28;20511;-78
2021/03/31 11:45:49;;;;;;;9.57;6.10;;;30.90;51.50;;;;;;5055131;28;20232;-78
2021/03/31 11:48:16;;;;;;;8.93;5.27;;;30.70;50.40;;;;;;5055480;28;20186;-79
2021/03/31 11:50:42;;;;;;;8.57;5.00;;;31.20;50.10;;;;;;5055380;28;20262;-80
2021/03/31 11:53:12;;;;;;;7.00;4.63;;;30.90;48.20;;;;;;5055329;28;20897;-79
2021/03/31 11:55:39;;;;;;;7.23;5.50;;;30.10;49.40;;;;;;5053650;28;20494;-80
2021/03/31 11:58:06;;;;;;;9.90;4.30;;;30.90;51.70;;;;;;5054823;28;20518;-79
2021/03/31 12:00:38;;;;;;;6.60;4.73;;;31.70;50.20;;;;;;5054893;28;20416;-77
2021/03/31 12:03:06;;;;;;;8.17;4.53;;;32.00;49.20;;;;;;5036844;28;20416;-78
2021/03/31 12:05:32;;;;;;;8.47;4.93;;;31.60;47.70;;;;;;5053513;28;20436;-79
2021/03/31 12:07:58;;;;;;;6.57;3.97;;;31.60;49.80;;;;;;5054932;28;20462;-78
2021/03/31 12:10:24;;;;;;;6.03;4.90;;;32.00;47.30;;;;;;5054991;28;20194;-79
2021/03/31 12:12:50;;;;;;;6.30;4.30;;;32.70;49.10;;;;;;5031244;28;20443;-80
2021/03/31 12:15:16;;;;;;;7.80;4.63;;;33.10;48.70;;;;;;5030803;28;20213;-79
2021/03/31 12:17:42;;;;;;;7.17;4.43;;;32.00;44.80;;;;;;5031966;28;20433;-78
2021/03/31 12:20:11;;;;;;;8.47;4.53;;;32.30;44.50;;;;;;5032599;28;20535;-80
2021/03/31 12:22:38;;;;;;;6.33;4.03;;;32.20;45.90;;;;;;5032319;28;20428;-77
2021/03/31 12:25:07;;;;;;;6.67;4.90;;;32.80;45.30;;;;;;5032686;28;20417;-78
2021/03/31 12:27:35;;;;;;;5.10;4.33;;;32.50;43.10;;;;;;5032594;28;20495;-80
2021/03/31 12:30:08;;;;;;;5.73;4.60;;;32.80;44.30;;;;;;5031813;28;20413;-78
2021/03/31 12:32:34;;;;;;;6.37;4.70;;;33.20;43.70;;;;;;5033081;28;20437;-80
2021/03/31 12:35:00;;;;;;;11.83;5.23;;;33.30;44.10;;;;;;5031523;28;20433;-76
2021/03/31 12:37:27;;;;;;;6.80;4.63;;;33.50;43.50;;;;;;5033025;28;20429;-77
2021/03/31 12:39:54;;;;;;;5.13;4.20;;;33.90;43.40;;;;;;5029651;28;20525;-79
2021/03/31 12:42:20;;;;;;;7.67;4.63;;;34.00;43.20;;;;;;5031337;28;20511;-78
2021/03/31 12:44:46;;;;;;;10.43;5.60;;;34.00;41.10;;;;;;5014529;28;20433;-78
2021/03/31 12:47:15;;;;;;;8.03;4.37;;;34.40;41.80;;;;;;5032360;28;21007;-79
2021/03/31 12:49:41;;;;;;;5.00;4.47;;;34.10;40.50;;;;;;5030895;28;20194;-79
2021/03/31 12:52:10;;;;;;;8.57;4.87;;;34.60;40.80;;;;;;5031867;28;20440;-78
2021/03/31 12:54:39;;;;;;;7.10;4.90;;;34.00;39.80;;;;;;5031744;28;20220;-80
2021/03/31 12:57:05;;;;;;;4.60;3.70;;;34.70;39.60;;;;;;5031482;28;20453;-78
2021/03/31 12:59:32;;;;;;;6.30;4.07;;;34.00;40.70;;;;;;5032467;28;20460;-76
2021/03/31 13:01:58;;;;;;;5.40;4.60;;;34.70;40.20;;;;;;5030271;28;20428;-78
2021/03/31 13:04:24;;;;;;;10.27;5.10;;;34.10;37.80;;;;;;5031853;28;20867;-79
2021/03/31 13:06:50;;;;;;;5.80;4.60;;;34.10;38.80;;;;;;5031758;28;20520;-78
2021/03/31 13:09:16;;;;;;;7.23;5.07;;;32.20;39.10;;;;;;5030721;28;20200;-77
2021/03/31 13:11:41;;;;;;;7.40;4.73;;;32.90;37.90;;;;;;5031447;28;20424;-77
2021/03/31 13:24:39;;;;;;;8.10;4.70;;;32.20;38.20;;;;;;5030486;28;20515;-78
2021/03/31 13:29:56;;;;;;;6.17;4.43;;;33.10;37.30;;;;;;5031353;28;20420;-79
2021/03/31 13:32:45;;;;;;;7.77;4.43;;;33.30;37.60;;;;;;5030177;28;20470;-78